Time;durP1;ratioP1;P1;durP2;ratioP2;P2;SDS_P1;SDS_P2;PMS_P1;PMS_P2;Temp;Humidity;BMP_temperature;BMP_pressure;BME280_temperature;BME280_humidity;BME280_pressure;Samples;Min_cycle;Max_cycle;Signal;HPM_P1;HPM_P2
2023/01/27 00:02:06;;;;;;;;;;;;;;;;;;6179686;23;19908;-89
2023/01/27 00:04:32;;;;;;;;;;;;;;;;;;6178827;23;20384;-85
2023/01/27 00:06:57;;;;;;;;;;;;;;;;;;6180793;23;19908;-87
2023/01/27 00:09:23;;;;;;;;;;;;;;;;;;6185402;23;19908;-87
2023/01/27 00:14:33;;;;;;;;;;;;;;;;;;6191599;23;19900;-88
2023/01/27 00:16:59;;;;;;;;;;;;;;;;;;6167678;23;19920;-88
2023/01/27 00:19:25;;;;;;;;;;;;;;;;;;6243622;23;19907;-88
2023/01/27 00:24:36;;;;;;;;;;;;;;;;;;6243711;23;19960;-87
2023/01/27 00:27:01;;;;;;;;;;;;;;;;;;6188489;23;19919;-87
2023/01/27 00:29:27;;;;;;;;;;;;;;;;;;6164003;23;19964;-85
2023/01/27 00:34:52;;;;;;;;;;;;;;;;;;6246736;22;19920;-85
2023/01/27 00:37:20;;;;;;;;;;;;;;;;;;6161315;23;19915;-85
2023/01/27 00:39:46;;;;;;;;;;;;;;;;;;6157965;23;19912;-85
2023/01/27 00:42:11;;;;;;;;;;;;;;;;;;6182490;23;19935;-87
2023/01/27 00:44:37;;;;;;;;;;;;;;;;;;6153069;23;19915;-87
2023/01/27 00:47:02;;;;;;;;;;;;;;;;;;6152855;23;19940;-84
2023/01/27 00:49:28;;;;;;;;;;;;;;;;;;6200692;23;19908;-85
2023/01/27 00:51:56;;;;;;;;;;;;;;;;;;6174701;23;19926;-85
2023/01/27 00:54:22;;;;;;;;;;;;;;;;;;6147316;23;19915;-85
2023/01/27 00:56:48;;;;;;;;;;;;;;;;;;6146996;23;19908;-87
2023/01/27 00:59:13;;;;;;;;;;;;;;;;;;6171591;23;20250;-87
2023/01/27 01:01:39;;;;;;;;;;;;;;;;;;6172202;23;19911;-85
2023/01/27 01:04:05;;;;;;;;;;;;;;;;;;6150042;23;19982;-85
2023/01/27 01:06:30;;;;;;;;;;;;;;;;;;6175380;23;20292;-84
2023/01/27 01:08:56;;;;;;;;;;;;;;;;;;6177748;23;19931;-85
2023/01/27 01:11:22;;;;;;;;;;;;;;;;;;6149038;23;19904;-87
2023/01/27 01:13:47;;;;;;;;;;;;;;;;;;6170916;23;19912;-85
2023/01/27 01:16:13;;;;;;;;;;;;;;;;;;6145503;23;19935;-84
2023/01/27 01:18:39;;;;;;;;;;;;;;;;;;6144387;23;19942;-85
2023/01/27 01:21:08;;;;;;;;;;;;;;;;;;6142901;23;19908;-85
2023/01/27 01:23:34;;;;;;;;;;;;;;;;;;6144159;23;19931;-85
2023/01/27 01:25:59;;;;;;;;;;;;;;;;;;6142073;23;19931;-86
2023/01/27 01:28:25;;;;;;;;;;;;;;;;;;6141789;23;19915;-86
2023/01/27 01:30:51;;;;;;;;;;;;;;;;;;6142892;23;20248;-84
2023/01/27 01:33:16;;;;;;;;;;;;;;;;;;6167450;23;19912;-86
2023/01/27 01:35:42;;;;;;;;;;;;;;;;;;6165697;23;19908;-86
2023/01/27 01:38:07;;;;;;;;;;;;;;;;;;6173336;23;19982;-85
2023/01/27 01:40:33;;;;;;;;;;;;;;;;;;6153753;23;19912;-85
2023/01/27 01:43:00;;;;;;;;;;;;;;;;;;6179360;23;19987;-84
2023/01/27 01:45:25;;;;;;;;;;;;;;;;;;6176755;23;20246;-86
2023/01/27 01:47:51;;;;;;;;;;;;;;;;;;6201512;23;19908;-85
2023/01/27 01:50:17;;;;;;;;;;;;;;;;;;6169572;23;19958;-84
2023/01/27 01:52:42;;;;;;;;;;;;;;;;;;6148015;23;19908;-87
2023/01/27 01:55:08;;;;;;;;;;;;;;;;;;6171747;23;20253;-84
2023/01/27 01:57:36;;;;;;;;;;;;;;;;;;6172513;23;19919;-85
2023/01/27 02:00:01;;;;;;;;;;;;;;;;;;6145346;23;19915;-87
2023/01/27 02:02:27;;;;;;;;;;;;;;;;;;6146946;23;19978;-88
2023/01/27 02:04:53;;;;;;;;;;;;;;;;;;6150251;23;19915;-86
2023/01/27 02:07:19;;;;;;;;;;;;;;;;;;6148335;23;19908;-85
2023/01/27 02:09:44;;;;;;;;;;;;;;;;;;6175493;23;20305;-85
2023/01/27 02:12:10;;;;;;;;;;;;;;;;;;6160213;23;19927;-84
2023/01/27 02:14:36;;;;;;;;;;;;;;;;;;6161141;23;19953;-84
2023/01/27 02:17:02;;;;;;;;;;;;;;;;;;6190252;23;19947;-85
2023/01/27 02:19:27;;;;;;;;;;;;;;;;;;6215259;23;19911;-86
2023/01/27 02:21:54;;;;;;;;;;;;;;;;;;6190318;23;19904;-85
2023/01/27 02:24:19;;;;;;;;;;;;;;;;;;6191590;23;19912;-85
2023/01/27 02:26:45;;;;;;;;;;;;;;;;;;6218273;23;19903;-85
2023/01/27 02:29:11;;;;;;;;;;;;;;;;;;6218233;23;19912;-86
2023/01/27 02:31:37;;;;;;;;;;;;;;;;;;6193897;23;19919;-87
2023/01/27 02:34:02;;;;;;;;;;;;;;;;;;6193914;23;19900;-84
2023/01/27 02:39:10;;;;;;;;;;;;;;;;;;6227927;22;19903;-88
2023/01/27 02:41:35;;;;;;;;;;;;;;;;;;6200230;23;19919;-85
2023/01/27 02:44:01;;;;;;;;;;;;;;;;;;6163630;23;19928;-85
2023/01/27 02:46:26;;;;;;;;;;;;;;;;;;6188166;23;19972;-86
2023/01/27 02:48:52;;;;;;;;;;;;;;;;;;6211179;23;20329;-85
2023/01/27 02:51:17;;;;;;;;;;;;;;;;;;6213042;23;19893;-85
2023/01/27 02:53:43;;;;;;;;;;;;;;;;;;6162727;23;19943;-86
2023/01/27 02:56:08;;;;;;;;;;;;;;;;;;6212025;23;19915;-83
2023/01/27 02:58:34;;;;;;;;;;;;;;;;;;6162728;23;19916;-84
2023/01/27 03:01:31;;;;;;;;;;;;;;;;;;6173612;23;19943;-85
2023/01/27 03:03:58;;;;;;;;;;;;;;;;;;6158450;23;19967;-85
2023/01/27 03:06:23;;;;;;;;;;;;;;;;;;6181025;23;19948;-85
2023/01/27 03:08:49;;;;;;;;;;;;;;;;;;6159409;23;20255;-85
2023/01/27 03:12:18;;;;;;;;;;;;;;;;;;6159991;23;19918;-87
2023/01/27 03:14:01;;;;;;;;;;;;;;;;;;6210956;23;19908;-86
2023/01/27 03:19:12;;;;;;;;;;;;;;;;;;6209145;23;19931;-80
2023/01/27 03:21:37;;;;;;;;;;;;;;;;;;6202719;23;19979;-80
2023/01/27 03:24:03;;;;;;;;;;;;;;;;;;6149193;23;19912;-84
2023/01/27 03:26:29;;;;;;;;;;;;;;;;;;6182961;23;20203;-87
2023/01/27 03:31:46;;;;;;;;;;;;;;;;;;6203608;23;19963;-87
2023/01/27 03:34:12;;;;;;;;;;;;;;;;;;6154323;23;19912;-85
2023/01/27 07:56:47;;;;;;;;;;;;;;;;;;6185743;22;19959;-85
2023/01/27 08:10:07;;;;;;;;;;;;;;;;;;6191652;22;19912;-81
2023/01/27 08:59:45;;;;;;;;;;;;;;;;;;6194891;22;19927;-83
2023/01/27 09:29:25;;;;;;;;;;;;;;;;;;6243325;22;19920;-85
2023/01/27 09:31:54;;;;;;;;;;;;;;;;;;6268857;23;19974;-85
2023/01/27 09:34:23;;;;;;;;;;;;;;;;;;6219991;23;19907;-85
2023/01/27 09:36:50;;;;;;;;;;;;;;;;;;6210949;23;19908;-85
2023/01/27 09:39:32;;;;;;;;;;;;;;;;;;6190553;23;19900;-83
2023/01/27 09:42:02;;;;;;;;;;;;;;;;;;6189433;23;19931;-83
2023/01/27 09:44:30;;;;;;;;;;;;;;;;;;6214658;23;19908;-84
2023/01/27 09:47:43;;;;;;;;;;;;;;;;;;6248762;22;19911;-84
2023/01/27 09:50:13;;;;;;;;;;;;;;;;;;6200141;23;19914;-84
2023/01/27 09:52:48;;;;;;;;;;;;;;;;;;6200742;23;19904;-84
2023/01/27 09:55:22;;;;;;;;;;;;;;;;;;6198384;23;19892;-84
2023/01/27 09:57:56;;;;;;;;;;;;;;;;;;6194837;23;19904;-83
2023/01/27 10:00:27;;;;;;;;;;;;;;;;;;6193704;23;19911;-83
2023/01/27 10:02:56;;;;;;;;;;;;;;;;;;6218376;23;19911;-84
2023/01/27 10:05:31;;;;;;;;;;;;;;;;;;6189727;23;19933;-83
2023/01/27 10:07:58;;;;;;;;;;;;;;;;;;6188995;23;19908;-82
2023/01/27 10:10:26;;;;;;;;;;;;;;;;;;6189331;23;19904;-83
2023/01/27 10:12:56;;;;;;;;;;;;;;;;;;6188962;23;19939;-83
2023/01/27 10:15:22;;;;;;;;;;;;;;;;;;6188620;23;19908;-83
2023/01/27 10:17:48;;;;;;;;;;;;;;;;;;6214499;23;19908;-83
2023/01/27 10:20:14;;;;;;;;;;;;;;;;;;6191562;23;19939;-85
2023/01/27 10:22:44;;;;;;;;;;;;;;;;;;6190928;23;19960;-84
2023/01/27 10:25:14;;;;;;;;;;;;;;;;;;6189136;23;19908;-82
2023/01/27 10:27:41;;;;;;;;;;;;;;;;;;6189742;23;19915;-83
2023/01/27 10:30:08;;;;;;;;;;;;;;;;;;6215667;23;19951;-85
2023/01/27 10:32:39;;;;;;;;;;;;;;;;;;6192356;23;19934;-84
2023/01/27 10:35:17;;;;;;;;;;;;;;;;;;6193740;23;19934;-82
2023/01/27 10:37:51;;;;;;;;;;;;;;;;;;6192596;23;19892;-82
2023/01/27 10:40:21;;;;;;;;;;;;;;;;;;6191347;23;19916;-82
2023/01/27 10:42:47;;;;;;;;;;;;;;;;;;6189858;23;19915;-82
2023/01/27 10:45:17;;;;;;;;;;;;;;;;;;6191296;23;19932;-83
2023/01/27 10:48:03;;;;;;;;;;;;;;;;;;6239966;23;19912;-83
2023/01/27 10:50:30;;;;;;;;;;;;;;;;;;6217023;23;19935;-84
2023/01/27 11:09:00;;;;;;;;;;;;;;;;;;6205914;22;19919;-78
2023/01/27 11:11:44;;;;;;;;;;;;;;;;;;6224858;23;19908;-75
2023/01/27 11:14:11;;;;;;;;;;;;;;;;;;6235286;23;19931;-82
2023/01/27 11:16:44;;;;;;;;;;;;;;;;;;6203123;23;19915;-86
2023/01/27 11:19:14;;;;;;;;;;;;;;;;;;6192825;23;19912;-86
2023/01/27 11:21:58;;;;;;;;;;;;;;;;;;6193041;23;19914;-85
2023/01/27 11:24:56;;;;;;;;;;;;;;;;;;6196405;23;19931;-84
2023/01/27 11:28:20;;;;;;;;;;;;;;;;;;6203436;22;21322;-85
2023/01/27 11:44:41;;;;;;;;;;;;;;;;;;6209943;23;19908;-88
2023/01/27 11:47:16;;;;;;;;;;;;;;;;;;6259254;22;19947;-86
2023/01/27 11:49:47;;;;;;;;;;;;;;;;;;6255528;22;20022;-87
2023/01/27 11:52:27;;;;;;;;;;;;;;;;;;6233121;23;19912;-86
2023/01/27 11:55:02;;;;;;;;;;;;;;;;;;6230431;22;19898;-89
2023/01/27 11:57:40;;;;;;;;;;;;;;;;;;6251177;23;19911;-87
2023/01/27 12:00:16;;;;;;;;;;;;;;;;;;6224227;23;19943;-84
2023/01/27 12:02:53;;;;;;;;;;;;;;;;;;6200895;23;19892;-86
2023/01/27 12:05:21;;;;;;;;;;;;;;;;;;6225009;23;19898;-88
2023/01/27 12:07:55;;;;;;;;;;;;;;;;;;6203021;23;19900;-85
2023/01/27 12:10:22;;;;;;;;;;;;;;;;;;6243041;23;19920;-84
2023/01/27 12:12:49;;;;;;;;;;;;;;;;;;6224163;23;19899;-86
2023/01/27 12:15:18;;;;;;;;;;;;;;;;;;6201474;23;19900;-86
2023/01/27 12:18:16;;;;;;;;;;;;;;;;;;6250233;23;19918;-86
2023/01/27 12:20:49;;;;;;;;;;;;;;;;;;6225132;23;19918;-87
2023/01/27 12:23:23;;;;;;;;;;;;;;;;;;6227308;23;19911;-86
2023/01/27 12:25:54;;;;;;;;;;;;;;;;;;6224920;23;19896;-86
2023/01/27 12:28:30;;;;;;;;;;;;;;;;;;6202973;23;19912;-86
2023/01/27 12:31:03;;;;;;;;;;;;;;;;;;6200209;23;19915;-87
2023/01/27 12:34:00;;;;;;;;;;;;;;;;;;;;;
2023/01/27 12:36:31;;;;;;;;;;;;;;;;;;6223416;23;19896;-88
2023/01/27 12:39:00;;;;;;;;;;;;;;;;;;6223563;23;19904;-88
2023/01/27 12:41:29;;;;;;;;;;;;;;;;;;6220832;23;19919;-88
2023/01/27 12:44:08;;;;;;;;;;;;;;;;;;6196966;23;20357;-86
2023/01/27 12:46:37;;;;;;;;;;;;;;;;;;6216606;23;19939;-88
2023/01/27 12:49:07;;;;;;;;;;;;;;;;;;6215945;23;19908;-88
2023/01/27 12:51:47;;;;;;;;;;;;;;;;;;6197057;23;19987;-87
2023/01/27 12:54:15;;;;;;;;;;;;;;;;;;6192457;23;19952;-87
2023/01/27 12:56:42;;;;;;;;;;;;;;;;;;6211291;23;19975;-86
2023/01/27 12:59:23;;;;;;;;;;;;;;;;;;6196902;23;19908;-87
2023/01/27 13:02:05;;;;;;;;;;;;;;;;;;6218554;23;19944;-88
2023/01/27 13:04:32;;;;;;;;;;;;;;;;;;6193747;23;19919;-87
2023/01/27 13:07:01;;;;;;;;;;;;;;;;;;6241642;23;19915;-87
2023/01/27 13:09:37;;;;;;;;;;;;;;;;;;6193686;23;19904;-88
2023/01/27 13:12:09;;;;;;;;;;;;;;;;;;6216751;23;19948;-87
2023/01/27 13:14:39;;;;;;;;;;;;;;;;;;6192669;22;20002;-89
2023/01/27 13:17:32;;;;;;;;;;;;;;;;;;6237393;22;19902;-89
2023/01/27 13:19:59;;;;;;;;;;;;;;;;;;6223222;23;19903;-86
2023/01/27 13:22:40;;;;;;;;;;;;;;;;;;6247944;23;19895;-87
2023/01/27 13:25:13;;;;;;;;;;;;;;;;;;6224292;22;19895;-87
2023/01/27 13:27:56;;;;;;;;;;;;;;;;;;6244244;22;19942;-88
2023/01/27 13:30:26;;;;;;;;;;;;;;;;;;6222839;23;19895;-89
2023/01/27 13:32:59;;;;;;;;;;;;;;;;;;6225827;23;19923;-89
2023/01/27 13:35:29;;;;;;;;;;;;;;;;;;6221293;22;19980;-89
2023/01/27 13:38:09;;;;;;;;;;;;;;;;;;6170563;23;19907;-89
2023/01/27 13:40:41;;;;;;;;;;;;;;;;;;6166351;23;19907;-84
2023/01/27 13:43:07;;;;;;;;;;;;;;;;;;6185639;23;19919;-84
2023/01/27 13:45:33;;;;;;;;;;;;;;;;;;6185144;23;19919;-85
2023/01/27 13:48:03;;;;;;;;;;;;;;;;;;6163875;23;19908;-84
2023/01/27 13:50:28;;;;;;;;;;;;;;;;;;6187941;23;19920;-85
2023/01/27 13:52:54;;;;;;;;;;;;;;;;;;6185397;23;19908;-83
2023/01/27 13:55:21;;;;;;;;;;;;;;;;;;6162193;23;19908;-85
2023/01/27 13:57:49;;;;;;;;;;;;;;;;;;6189341;23;19908;-85
2023/01/27 14:00:16;;;;;;;;;;;;;;;;;;6212434;23;19908;-84
2023/01/27 14:02:45;;;;;;;;;;;;;;;;;;6162517;23;19908;-84
2023/01/27 14:05:11;;;;;;;;;;;;;;;;;;6211100;23;19908;-84
2023/01/27 14:07:40;;;;;;;;;;;;;;;;;;6187441;23;19908;-85
2023/01/27 14:10:06;;;;;;;;;;;;;;;;;;6185295;23;19955;-84
2023/01/27 14:12:32;;;;;;;;;;;;;;;;;;6211609;23;19935;-83
2023/01/27 14:15:03;;;;;;;;;;;;;;;;;;6213401;23;19927;-86
2023/01/27 14:17:34;;;;;;;;;;;;;;;;;;6188458;23;19908;-85
2023/01/27 14:20:00;;;;;;;;;;;;;;;;;;6188698;23;19908;-84
2023/01/27 14:22:37;;;;;;;;;;;;;;;;;;6191359;23;19896;-86
2023/01/27 14:25:03;;;;;;;;;;;;;;;;;;6162586;23;19912;-85
2023/01/27 14:27:29;;;;;;;;;;;;;;;;;;6187682;23;19963;-83
2023/01/27 14:29:55;;;;;;;;;;;;;;;;;;6209677;23;19912;-81
2023/01/27 14:32:20;;;;;;;;;;;;;;;;;;6211753;23;19908;-84
2023/01/27 14:34:46;;;;;;;;;;;;;;;;;;6238675;23;19908;-85
2023/01/27 14:37:12;;;;;;;;;;;;;;;;;;6186916;23;19908;-84
2023/01/27 14:39:38;;;;;;;;;;;;;;;;;;6186902;23;19908;-84
2023/01/27 14:42:10;;;;;;;;;;;;;;;;;;6185102;23;19915;-84
2023/01/27 14:44:36;;;;;;;;;;;;;;;;;;6211616;23;20322;-88
2023/01/27 14:49:48;;;;;;;;;;;;;;;;;;6277941;22;19903;-88
2023/01/27 14:52:18;;;;;;;;;;;;;;;;;;6229245;22;19907;-88
2023/01/27 14:55:03;;;;;;;;;;;;;;;;;;6232608;22;19934;-88
2023/01/27 14:57:37;;;;;;;;;;;;;;;;;;6223833;23;19935;-87
2023/01/27 15:00:09;;;;;;;;;;;;;;;;;;6222335;23;19919;-87
2023/01/27 15:02:47;;;;;;;;;;;;;;;;;;6247734;23;19941;-89
2023/01/27 15:05:14;;;;;;;;;;;;;;;;;;6197423;23;19899;-88
2023/01/27 15:07:51;;;;;;;;;;;;;;;;;;6199745;23;19907;-89
2023/01/27 15:10:27;;;;;;;;;;;;;;;;;;6219565;22;19934;-88
2023/01/27 15:12:57;;;;;;;;;;;;;;;;;;6222761;22;19908;-81
2023/01/27 15:15:26;;;;;;;;;;;;;;;;;;6220336;22;19912;-83
2023/01/27 15:17:55;;;;;;;;;;;;;;;;;;6217220;23;19927;-84
2023/01/27 15:20:21;;;;;;;;;;;;;;;;;;6214393;23;19923;-83
2023/01/27 15:22:50;;;;;;;;;;;;;;;;;;6213771;23;19934;-85
2023/01/27 15:25:18;;;;;;;;;;;;;;;;;;6243060;23;19934;-83
2023/01/27 15:27:44;;;;;;;;;;;;;;;;;;6189749;23;19907;-83
2023/01/27 15:30:13;;;;;;;;;;;;;;;;;;6193090;23;20253;-85
2023/01/27 15:32:39;;;;;;;;;;;;;;;;;;6190516;23;19907;-84
2023/01/27 15:35:05;;;;;;;;;;;;;;;;;;6213204;23;19898;-83
2023/01/27 15:37:31;;;;;;;;;;;;;;;;;;6213475;23;20292;-81
2023/01/27 15:39:56;;;;;;;;;;;;;;;;;;6238490;23;19899;-84
2023/01/27 15:42:26;;;;;;;;;;;;;;;;;;6217884;23;19908;-83
2023/01/27 15:44:56;;;;;;;;;;;;;;;;;;6192938;23;19892;-88
2023/01/27 15:47:26;;;;;;;;;;;;;;;;;;6189393;23;19924;-92
2023/01/27 15:49:52;;;;;;;;;;;;;;;;;;6196269;23;19954;-84
2023/01/27 15:52:18;;;;;;;;;;;;;;;;;;6223518;23;19912;-93
2023/01/27 15:54:44;;;;;;;;;;;;;;;;;;6174154;23;20230;-90
2023/01/27 15:57:10;;;;;;;;;;;;;;;;;;6217453;23;19962;-93
2023/01/27 15:59:35;;;;;;;;;;;;;;;;;;6191826;23;19908;-94
2023/01/27 16:02:01;;;;;;;;;;;;;;;;;;6216416;23;19927;-93
2023/01/27 16:04:28;;;;;;;;;;;;;;;;;;6189630;23;19912;-91
2023/01/27 16:07:00;;;;;;;;;;;;;;;;;;6164051;23;20202;-93
2023/01/27 16:09:26;;;;;;;;;;;;;;;;;;6165923;23;19918;-92
2023/01/27 16:11:52;;;;;;;;;;;;;;;;;;6164924;23;19955;-93
2023/01/27 16:14:17;;;;;;;;;;;;;;;;;;6189732;23;20222;-90
2023/01/27 16:16:43;;;;;;;;;;;;;;;;;;6217497;23;19908;-93
2023/01/27 16:19:10;;;;;;;;;;;;;;;;;;6192039;23;19908;-91
2023/01/27 16:21:39;;;;;;;;;;;;;;;;;;6191915;23;19908;-92
2023/01/27 16:24:04;;;;;;;;;;;;;;;;;;6166103;23;19979;-93
2023/01/27 16:26:30;;;;;;;;;;;;;;;;;;6165824;23;19908;-93
2023/01/27 16:28:55;;;;;;;;;;;;;;;;;;6168390;23;19911;-93
2023/01/27 16:31:21;;;;;;;;;;;;;;;;;;6193716;23;19914;-93
2023/01/27 16:33:47;;;;;;;;;;;;;;;;;;6167414;23;19908;-92
2023/01/27 16:36:13;;;;;;;;;;;;;;;;;;6217807;23;19960;-90
2023/01/27 16:38:42;;;;;;;;;;;;;;;;;;6191826;23;19908;-91
2023/01/27 16:41:08;;;;;;;;;;;;;;;;;;6191495;23;19920;-91
2023/01/27 16:43:34;;;;;;;;;;;;;;;;;;6167348;23;19943;-90
2023/01/27 16:46:00;;;;;;;;;;;;;;;;;;6192513;23;19915;-91
2023/01/27 16:48:26;;;;;;;;;;;;;;;;;;6192031;23;19918;-89
2023/01/27 16:50:52;;;;;;;;;;;;;;;;;;6191409;23;19935;-90
2023/01/27 16:53:17;;;;;;;;;;;;;;;;;;6190838;23;19908;-92
2023/01/27 16:55:43;;;;;;;;;;;;;;;;;;6166466;23;19908;-92
2023/01/27 16:58:09;;;;;;;;;;;;;;;;;;6166506;23;19908;-91
2023/01/27 17:00:35;;;;;;;;;;;;;;;;;;6166447;23;19915;-93
2023/01/27 17:03:00;;;;;;;;;;;;;;;;;;6191558;23;19962;-90
2023/01/27 17:05:26;;;;;;;;;;;;;;;;;;6190802;23;19915;-92
2023/01/27 17:07:51;;;;;;;;;;;;;;;;;;6191150;23;19908;-91
2023/01/27 17:10:17;;;;;;;;;;;;;;;;;;6191584;23;19912;-91
2023/01/27 17:12:44;;;;;;;;;;;;;;;;;;6168772;23;19971;-91
2023/01/27 17:15:10;;;;;;;;;;;;;;;;;;6224338;23;19979;-91
2023/01/27 17:17:39;;;;;;;;;;;;;;;;;;6174575;23;19908;-93
2023/01/27 17:20:04;;;;;;;;;;;;;;;;;;6176613;23;19932;-91
2023/01/27 17:22:31;;;;;;;;;;;;;;;;;;6178841;23;19908;-92
2023/01/27 17:25:10;;;;;;;;;;;;;;;;;;6204222;23;19908;-90
2023/01/27 17:27:36;;;;;;;;;;;;;;;;;;6199422;23;19908;-90
2023/01/27 17:30:01;;;;;;;;;;;;;;;;;;6195368;23;19908;-92
2023/01/27 17:32:31;;;;;;;;;;;;;;;;;;6219908;23;20347;-92
2023/01/27 17:34:56;;;;;;;;;;;;;;;;;;6192126;23;19931;-91
2023/01/27 17:37:22;;;;;;;;;;;;;;;;;;6192870;23;19908;-92
2023/01/27 17:39:47;;;;;;;;;;;;;;;;;;6220421;23;19912;-92
2023/01/27 17:42:13;;;;;;;;;;;;;;;;;;6219485;23;20230;-92
2023/01/27 17:44:41;;;;;;;;;;;;;;;;;;6193429;23;19915;-93
2023/01/27 17:47:07;;;;;;;;;;;;;;;;;;6168096;23;20313;-91
2023/01/27 17:49:32;;;;;;;;;;;;;;;;;;6195799;23;19939;-93
2023/01/27 17:51:59;;;;;;;;;;;;;;;;;;6189188;23;19990;-93
2023/01/27 17:54:24;;;;;;;;;;;;;;;;;;6164925;23;19908;-91
2023/01/27 17:56:49;;;;;;;;;;;;;;;;;;6215116;23;20381;-92
2023/01/27 17:59:15;;;;;;;;;;;;;;;;;;6189265;23;19908;-92
2023/01/27 18:01:44;;;;;;;;;;;;;;;;;;6215436;23;20296;-91
2023/01/27 18:04:12;;;;;;;;;;;;;;;;;;6188987;23;19962;-92
2023/01/27 18:06:38;;;;;;;;;;;;;;;;;;6188977;23;19912;-92
2023/01/27 18:09:03;;;;;;;;;;;;;;;;;;6214095;23;20226;-91
2023/01/27 18:11:30;;;;;;;;;;;;;;;;;;6216396;23;20238;-92
2023/01/27 18:13:55;;;;;;;;;;;;;;;;;;6214273;23;20337;-91
2023/01/27 18:16:21;;;;;;;;;;;;;;;;;;6189624;23;19904;-91
2023/01/27 18:18:46;;;;;;;;;;;;;;;;;;6215612;23;19938;-92
2023/01/27 18:21:28;;;;;;;;;;;;;;;;;;6191669;23;19919;-93
2023/01/27 18:23:54;;;;;;;;;;;;;;;;;;6214296;23;20238;-90
2023/01/27 18:26:25;;;;;;;;;;;;;;;;;;6214301;23;19915;-91
2023/01/27 18:28:51;;;;;;;;;;;;;;;;;;6188993;23;20380;-92
2023/01/27 18:31:17;;;;;;;;;;;;;;;;;;6214778;23;19919;-93
2023/01/27 18:33:45;;;;;;;;;;;;;;;;;;6214371;23;19908;-91
2023/01/27 18:36:14;;;;;;;;;;;;;;;;;;6163847;23;19908;-94
2023/01/27 18:38:39;;;;;;;;;;;;;;;;;;6188769;23;19908;-92
2023/01/27 18:41:05;;;;;;;;;;;;;;;;;;6164672;23;19911;-93
2023/01/27 18:43:49;;;;;;;;;;;;;;;;;;6166116;23;19916;-92
2023/01/27 18:46:20;;;;;;;;;;;;;;;;;;6214456;23;19911;-90
2023/01/27 18:49:02;;;;;;;;;;;;;;;;;;6191703;23;19946;-92
2023/01/27 18:51:27;;;;;;;;;;;;;;;;;;6190302;23;19920;-92
2023/01/27 18:53:55;;;;;;;;;;;;;;;;;;6215488;23;20294;-93
2023/01/27 18:56:30;;;;;;;;;;;;;;;;;;6165804;23;19908;-93
2023/01/27 18:58:56;;;;;;;;;;;;;;;;;;6189102;23;19908;-91
2023/01/27 19:01:24;;;;;;;;;;;;;;;;;;6188985;23;20030;-91
2023/01/27 19:03:56;;;;;;;;;;;;;;;;;;6188245;23;19908;-90
2023/01/27 19:06:21;;;;;;;;;;;;;;;;;;6162746;23;19908;-91
2023/01/27 19:08:50;;;;;;;;;;;;;;;;;;6188854;23;19904;-92
2023/01/27 19:11:20;;;;;;;;;;;;;;;;;;6163618;23;19982;-93
2023/01/27 19:14:01;;;;;;;;;;;;;;;;;;6166333;23;19912;-92
2023/01/27 19:16:32;;;;;;;;;;;;;;;;;;6163166;23;19908;-91
2023/01/27 19:19:03;;;;;;;;;;;;;;;;;;6162845;23;19936;-92
2023/01/27 19:21:30;;;;;;;;;;;;;;;;;;6162091;23;19908;-93
2023/01/27 19:23:56;;;;;;;;;;;;;;;;;;6215047;23;19904;-92
2023/01/27 19:26:21;;;;;;;;;;;;;;;;;;6188667;23;19912;-93
2023/01/27 19:28:47;;;;;;;;;;;;;;;;;;6188304;23;20196;-91
2023/01/27 19:31:12;;;;;;;;;;;;;;;;;;6163516;23;20298;-93
2023/01/27 19:33:40;;;;;;;;;;;;;;;;;;6163631;23;19923;-89
2023/01/27 19:36:05;;;;;;;;;;;;;;;;;;6163902;23;19923;-90
2023/01/27 19:38:31;;;;;;;;;;;;;;;;;;6163267;23;19904;-91
2023/01/27 19:40:59;;;;;;;;;;;;;;;;;;6213285;23;20333;-91
2023/01/27 19:43:31;;;;;;;;;;;;;;;;;;6162880;23;19908;-91
2023/01/27 19:45:57;;;;;;;;;;;;;;;;;;6187792;23;19954;-91
2023/01/27 19:48:22;;;;;;;;;;;;;;;;;;6163017;23;19975;-90
2023/01/27 19:50:48;;;;;;;;;;;;;;;;;;6187885;23;19916;-91
2023/01/27 19:53:13;;;;;;;;;;;;;;;;;;6217001;23;19931;-91
2023/01/27 19:55:39;;;;;;;;;;;;;;;;;;6214607;23;20337;-92
2023/01/27 19:58:04;;;;;;;;;;;;;;;;;;6189559;23;20363;-93
2023/01/27 20:00:30;;;;;;;;;;;;;;;;;;6165228;23;20368;-91
2023/01/27 20:02:55;;;;;;;;;;;;;;;;;;6165115;23;19939;-91
2023/01/27 20:05:21;;;;;;;;;;;;;;;;;;6165049;23;19981;-93
2023/01/27 20:07:47;;;;;;;;;;;;;;;;;;6217591;23;20321;-91
2023/01/27 20:10:13;;;;;;;;;;;;;;;;;;6194188;23;19970;-92
2023/01/27 20:12:42;;;;;;;;;;;;;;;;;;6171666;23;19915;-92
2023/01/27 20:15:08;;;;;;;;;;;;;;;;;;6173004;23;19908;-89
2023/01/27 20:17:34;;;;;;;;;;;;;;;;;;6169646;23;19908;-92
2023/01/27 20:19:59;;;;;;;;;;;;;;;;;;6220576;23;20240;-90
2023/01/27 20:22:25;;;;;;;;;;;;;;;;;;6191361;23;19907;-90
2023/01/27 20:24:54;;;;;;;;;;;;;;;;;;6165546;23;19911;-93
2023/01/27 20:27:37;;;;;;;;;;;;;;;;;;6164058;23;19908;-92
2023/01/27 20:30:12;;;;;;;;;;;;;;;;;;6165507;23;19919;-91
2023/01/27 20:32:38;;;;;;;;;;;;;;;;;;6190060;23;19911;-92
2023/01/27 20:35:03;;;;;;;;;;;;;;;;;;6165106;23;19984;-94
2023/01/27 20:37:29;;;;;;;;;;;;;;;;;;6190381;23;19990;-92
2023/01/27 20:39:54;;;;;;;;;;;;;;;;;;6189232;23;20285;-92
2023/01/27 20:42:20;;;;;;;;;;;;;;;;;;6189593;23;20223;-91
2023/01/27 20:44:45;;;;;;;;;;;;;;;;;;6189510;23;19908;-93
2023/01/27 20:47:12;;;;;;;;;;;;;;;;;;6188758;23;20249;-91
2023/01/27 20:49:37;;;;;;;;;;;;;;;;;;6215655;23;19912;-91
2023/01/27 20:52:03;;;;;;;;;;;;;;;;;;6189199;23;19934;-93
2023/01/27 20:54:29;;;;;;;;;;;;;;;;;;6189444;23;19987;-93
2023/01/27 20:56:54;;;;;;;;;;;;;;;;;;6216160;23;20412;-90
2023/01/27 20:59:20;;;;;;;;;;;;;;;;;;6214674;23;19932;-91
2023/01/27 21:01:45;;;;;;;;;;;;;;;;;;6215319;23;20301;-90
2023/01/27 21:04:11;;;;;;;;;;;;;;;;;;6189868;23;19935;-92
2023/01/27 21:06:36;;;;;;;;;;;;;;;;;;6189414;23;19908;-92
2023/01/27 21:09:01;;;;;;;;;;;;;;;;;;6165518;23;20329;-92
2023/01/27 21:11:27;;;;;;;;;;;;;;;;;;6215056;23;20042;-94
2023/01/27 21:13:52;;;;;;;;;;;;;;;;;;6165269;23;20245;-92
2023/01/27 21:16:18;;;;;;;;;;;;;;;;;;6190087;23;19912;-88
2023/01/27 21:18:43;;;;;;;;;;;;;;;;;;6188983;23;20331;-91
2023/01/27 21:21:08;;;;;;;;;;;;;;;;;;6216080;23;19908;-92
2023/01/27 21:23:34;;;;;;;;;;;;;;;;;;6189637;23;19908;-92
2023/01/27 21:25:59;;;;;;;;;;;;;;;;;;6189758;23;19910;-87
2023/01/27 21:28:25;;;;;;;;;;;;;;;;;;6216271;23;20253;-92
2023/01/27 21:30:50;;;;;;;;;;;;;;;;;;6189910;23;19946;-90
2023/01/27 21:33:16;;;;;;;;;;;;;;;;;;6164803;23;19908;-92
2023/01/27 21:35:41;;;;;;;;;;;;;;;;;;6188940;23;19908;-91
2023/01/27 21:38:07;;;;;;;;;;;;;;;;;;6214120;23;19958;-90
2023/01/27 21:40:33;;;;;;;;;;;;;;;;;;6189397;23;20296;-93
2023/01/27 21:45:43;;;;;;;;;;;;;;;;;;6189101;23;19908;-93
2023/01/27 21:48:08;;;;;;;;;;;;;;;;;;6189717;23;19962;-93
2023/01/27 21:50:34;;;;;;;;;;;;;;;;;;6189192;23;20249;-91
2023/01/27 21:52:59;;;;;;;;;;;;;;;;;;6213584;23;19919;-91
2023/01/27 21:55:29;;;;;;;;;;;;;;;;;;6214046;23;19904;-91
2023/01/27 21:57:55;;;;;;;;;;;;;;;;;;6215691;23;19908;-92
2023/01/27 22:00:21;;;;;;;;;;;;;;;;;;6189225;23;19931;-91
2023/01/27 22:02:47;;;;;;;;;;;;;;;;;;6189280;23;19992;-91
2023/01/27 22:05:12;;;;;;;;;;;;;;;;;;6215615;23;19963;-94
2023/01/27 22:07:37;;;;;;;;;;;;;;;;;;6214138;23;19930;-91
2023/01/27 22:10:03;;;;;;;;;;;;;;;;;;6163711;23;19919;-92
2023/01/27 22:12:29;;;;;;;;;;;;;;;;;;6215074;23;19915;-90
2023/01/27 22:14:54;;;;;;;;;;;;;;;;;;6188066;23;20026;-93
2023/01/27 22:17:20;;;;;;;;;;;;;;;;;;6189142;23;20333;-92
2023/01/27 22:19:45;;;;;;;;;;;;;;;;;;6188940;23;20250;-91
2023/01/27 22:22:11;;;;;;;;;;;;;;;;;;6214352;23;20309;-87
2023/01/27 22:24:36;;;;;;;;;;;;;;;;;;6188964;23;19914;-91
2023/01/27 22:27:02;;;;;;;;;;;;;;;;;;6188725;23;19908;-89
2023/01/27 22:29:27;;;;;;;;;;;;;;;;;;6164150;23;20081;-88
2023/01/27 22:31:53;;;;;;;;;;;;;;;;;;6189175;23;19911;-92
2023/01/27 22:34:18;;;;;;;;;;;;;;;;;;6189477;23;19987;-92
2023/01/27 22:36:44;;;;;;;;;;;;;;;;;;6190365;23;19908;-92
2023/01/27 22:39:10;;;;;;;;;;;;;;;;;;6189031;23;19908;-91
2023/01/27 22:41:35;;;;;;;;;;;;;;;;;;6189038;23;19939;-92
2023/01/27 22:44:00;;;;;;;;;;;;;;;;;;6215681;23;19912;-90
2023/01/27 22:46:26;;;;;;;;;;;;;;;;;;6164026;23;20046;-92
2023/01/27 22:48:51;;;;;;;;;;;;;;;;;;6188964;23;19904;-93
2023/01/27 22:51:17;;;;;;;;;;;;;;;;;;6164222;23;19919;-92
2023/01/27 22:53:42;;;;;;;;;;;;;;;;;;6189090;23;19950;-91
2023/01/27 22:56:08;;;;;;;;;;;;;;;;;;6188381;23;20075;-91
2023/01/27 22:58:33;;;;;;;;;;;;;;;;;;6187956;23;19911;-92
2023/01/27 23:00:59;;;;;;;;;;;;;;;;;;6163492;23;19908;-93
2023/01/27 23:03:24;;;;;;;;;;;;;;;;;;6163748;23;19908;-92
2023/01/27 23:05:50;;;;;;;;;;;;;;;;;;6163590;23;19908;-93
2023/01/27 23:08:15;;;;;;;;;;;;;;;;;;6163818;23;19982;-93
2023/01/27 23:10:41;;;;;;;;;;;;;;;;;;6165672;23;19932;-92
2023/01/27 23:13:06;;;;;;;;;;;;;;;;;;6189693;23;19908;-91
2023/01/27 23:15:32;;;;;;;;;;;;;;;;;;6164375;23;19908;-92
2023/01/27 23:17:57;;;;;;;;;;;;;;;;;;6188974;23;19943;-91
2023/01/27 23:20:22;;;;;;;;;;;;;;;;;;6162979;23;19931;-92
2023/01/27 23:22:48;;;;;;;;;;;;;;;;;;6163556;23;19912;-93
2023/01/27 23:25:13;;;;;;;;;;;;;;;;;;6188321;23;19916;-92
2023/01/27 23:27:39;;;;;;;;;;;;;;;;;;6163526;23;20313;-94
2023/01/27 23:30:07;;;;;;;;;;;;;;;;;;6163111;23;19915;-90
2023/01/27 23:32:33;;;;;;;;;;;;;;;;;;6163496;23;19908;-91